createdAt,value
2023-01-20T00:01:55.943Z,1.14
2023-01-20T00:04:24.410Z,0.95
2023-01-20T00:06:54.448Z,1.13
2023-01-20T00:09:24.555Z,1.10
2023-01-20T00:11:53.332Z,1.10
2023-01-20T00:14:22.206Z,1.09
2023-01-20T00:16:53.716Z,1.10
2023-01-20T00:19:22.154Z,-0.03
2023-01-20T00:21:50.837Z,1.08
2023-01-20T00:24:19.268Z,1.07
2023-01-20T00:26:49.076Z,0.54
2023-01-20T00:29:17.557Z,0.14
2023-01-20T00:31:46.321Z,0.98
2023-01-20T00:34:15.152Z,0.98
2023-01-20T00:36:45.875Z,0.96
2023-01-20T00:39:19.215Z,0.94
2023-01-20T00:41:53.654Z,0.94
2023-01-20T00:44:22.660Z,0.92
2023-01-20T00:46:51.497Z,0.91
2023-01-20T00:49:26.254Z,0.39
2023-01-20T00:51:55.111Z,0.91
2023-01-20T00:54:23.911Z,0.93
2023-01-20T00:56:54.130Z,0.94
2023-01-20T00:59:24.264Z,0.96
2023-01-20T01:01:53.181Z,0.97
2023-01-20T01:04:22.230Z,0.99
2023-01-20T01:06:54.146Z,1.00
2023-01-20T01:09:22.883Z,0.74
2023-01-20T01:11:53.221Z,1.01
2023-01-20T01:14:21.983Z,1.03
2023-01-20T01:16:50.817Z,1.08
2023-01-20T01:19:19.951Z,0.00
2023-01-20T01:21:48.423Z,0.89
2023-01-20T01:24:17.229Z,1.10
2023-01-20T01:26:45.994Z,1.11
2023-01-20T01:29:16.094Z,1.10
2023-01-20T01:31:44.922Z,1.08
2023-01-20T01:34:13.685Z,1.08
2023-01-20T01:36:42.458Z,1.09
2023-01-20T01:39:12.560Z,1.11
2023-01-20T01:41:43.566Z,0.20
2023-01-20T01:44:17.083Z,1.09
2023-01-20T01:46:45.943Z,1.13
2023-01-20T01:49:18.974Z,0.69
2023-01-20T01:51:55.185Z,1.13
2023-01-20T01:54:28.710Z,0.15
2023-01-20T01:56:58.621Z,1.10
2023-01-20T01:59:28.893Z,1.10
2023-01-20T02:01:58.599Z,1.13
2023-01-20T02:04:31.256Z,0.85
2023-01-20T02:07:09.289Z,1.20
2023-01-20T02:09:41.157Z,1.21
2023-01-20T02:12:20.526Z,0.00
2023-01-20T02:14:55.175Z,1.26
2023-01-20T02:17:32.484Z,-0.29
2023-01-20T02:20:44.909Z,0.87
2023-01-20T02:23:36.503Z,0.72
2023-01-20T02:26:40.135Z,0.74
2023-01-20T02:30:11.347Z,1.42
2023-01-20T02:32:53.476Z,0.87
2023-01-20T02:35:33.866Z,1.25
2023-01-20T02:38:16.385Z,1.45
2023-01-20T02:40:59.716Z,1.48
2023-01-20T02:43:42.759Z,1.16
2023-01-20T02:46:18.273Z,1.35
2023-01-20T02:49:05.281Z,1.47
2023-01-20T02:51:51.024Z,0.79
2023-01-20T02:54:23.019Z,1.21
2023-01-20T02:56:54.012Z,1.45
2023-01-20T02:59:30.001Z,1.46
2023-01-20T03:02:04.914Z,1.49
2023-01-20T03:04:42.710Z,1.51
2023-01-20T03:07:13.864Z,1.25
2023-01-20T03:09:49.526Z,1.49
2023-01-20T03:12:24.728Z,0.10
2023-01-20T03:14:55.236Z,1.52
2023-01-20T03:17:24.731Z,1.19
2023-01-20T03:20:14.530Z,0.25
2023-01-20T03:22:51.240Z,1.51
2023-01-20T03:25:21.669Z,1.54
2023-01-20T03:27:50.647Z,1.57
2023-01-20T03:30:20.029Z,1.57
2023-01-20T03:32:51.210Z,0.60
2023-01-20T03:35:22.577Z,1.43
2023-01-20T03:37:53.740Z,1.59
2023-01-20T03:40:26.297Z,1.60
2023-01-20T03:43:02.684Z,0.72
2023-01-20T03:45:42.347Z,1.60
2023-01-20T03:48:20.312Z,1.62
2023-01-20T03:50:58.283Z,1.32
2023-01-20T03:53:38.238Z,-0.11
2023-01-20T03:56:17.008Z,1.38
2023-01-20T03:58:51.986Z,1.63
2023-01-20T04:01:25.852Z,1.34
2023-01-20T04:03:56.288Z,1.66
2023-01-20T04:06:30.707Z,1.65
2023-01-20T04:09:05.611Z,1.19
2023-01-20T04:11:34.456Z,1.65
2023-01-20T04:14:03.041Z,1.64
2023-01-20T04:16:31.819Z,1.61
2023-01-20T04:19:00.548Z,1.60
2023-01-20T04:21:36.150Z,0.44
2023-01-20T04:24:12.052Z,1.60
2023-01-20T04:26:40.595Z,1.52
2023-01-20T04:29:12.023Z,1.59
2023-01-20T04:31:41.788Z,1.21
2023-01-20T04:34:15.444Z,1.58
2023-01-20T04:36:45.322Z,1.30
2023-01-20T04:39:14.105Z,1.54
2023-01-20T04:41:52.086Z,1.58
2023-01-20T04:44:26.193Z,1.61
2023-01-20T04:46:59.883Z,1.58
2023-01-20T04:49:32.038Z,1.60
2023-01-20T04:52:04.956Z,1.61
2023-01-20T04:54:33.927Z,1.60
2023-01-20T04:57:09.424Z,1.62
2023-01-20T04:59:46.900Z,1.64
2023-01-20T05:02:15.761Z,1.62
2023-01-20T05:04:45.264Z,1.62
2023-01-20T05:07:15.132Z,1.48
2023-01-20T05:09:45.950Z,1.65
2023-01-20T05:12:14.725Z,1.64
2023-01-20T05:14:43.096Z,1.65
2023-01-20T05:17:11.820Z,1.68
2023-01-20T05:19:40.929Z,1.67
2023-01-20T05:22:09.350Z,1.70
2023-01-20T05:24:41.849Z,1.58
2023-01-20T05:27:10.749Z,1.73
2023-01-20T05:29:39.445Z,1.76
2023-01-20T05:32:08.188Z,1.74
2023-01-20T05:34:36.580Z,1.56
2023-01-20T05:37:05.312Z,1.68
2023-01-20T05:39:34.031Z,1.69
2023-01-20T05:42:04.045Z,1.70
2023-01-20T05:44:32.787Z,1.69
2023-01-20T05:47:01.211Z,1.70
2023-01-20T05:49:29.933Z,1.71
2023-01-20T05:51:58.293Z,1.71
2023-01-20T05:54:27.308Z,1.72
2023-01-20T05:56:55.739Z,1.12
2023-01-20T05:59:26.595Z,1.71
2023-01-20T06:01:56.833Z,1.72
2023-01-20T06:04:27.561Z,1.77
2023-01-20T06:06:56.295Z,1.78
2023-01-20T06:09:25.214Z,1.79
2023-01-20T06:11:53.892Z,1.78
2023-01-20T06:14:22.642Z,1.78
2023-01-20T06:16:53.038Z,1.78
2023-01-20T06:19:21.712Z,1.78
2023-01-20T06:21:50.534Z,1.78
2023-01-20T06:24:18.911Z,1.80
2023-01-20T06:26:47.695Z,1.78
2023-01-20T06:29:18.378Z,1.81
2023-01-20T06:31:47.236Z,1.77
2023-01-20T06:34:17.067Z,1.77
2023-01-20T06:36:46.264Z,1.74
2023-01-20T06:39:17.261Z,1.62
2023-01-20T06:41:46.453Z,1.60
2023-01-20T06:44:15.495Z,1.63
2023-01-20T06:46:45.712Z,1.68
2023-01-20T06:49:16.716Z,1.69
2023-01-20T06:51:47.776Z,1.68
2023-01-20T06:54:16.597Z,1.65
2023-01-20T06:56:45.483Z,1.73
2023-01-20T06:59:14.749Z,1.35
2023-01-20T07:01:47.117Z,1.74
2023-01-20T07:04:17.287Z,1.69
2023-01-20T07:06:46.102Z,1.60
2023-01-20T07:09:15.089Z,1.55
2023-01-20T07:11:44.998Z,1.48
2023-01-20T07:14:13.727Z,1.48
2023-01-20T07:16:42.430Z,1.48
2023-01-20T07:19:11.717Z,1.40
2023-01-20T07:21:46.175Z,1.38
2023-01-20T07:24:14.971Z,1.38
2023-01-20T07:26:43.395Z,1.39
2023-01-20T07:29:12.172Z,1.52
2023-01-20T07:31:40.916Z,1.51
2023-01-20T07:34:09.714Z,1.40
2023-01-20T07:36:38.146Z,1.46
2023-01-20T07:39:07.947Z,1.57
2023-01-20T07:41:36.691Z,1.75
2023-01-20T07:44:05.681Z,1.67
2023-01-20T07:46:34.482Z,1.59
2023-01-20T07:49:03.176Z,1.62
2023-01-20T07:51:31.934Z,1.66
2023-01-20T07:54:01.817Z,1.69
2023-01-20T07:56:32.132Z,1.74
2023-01-20T07:59:00.886Z,1.75
2023-01-20T08:01:33.400Z,1.75
2023-01-20T08:04:02.774Z,1.77
2023-01-20T08:06:31.700Z,1.79
2023-01-20T08:09:02.896Z,1.49
2023-01-20T08:11:33.257Z,1.88
2023-01-20T08:14:01.688Z,1.87
2023-01-20T08:16:32.044Z,1.80
2023-01-20T08:19:00.636Z,1.81
2023-01-20T08:21:31.724Z,1.87
2023-01-20T08:24:04.172Z,1.94
2023-01-20T08:26:34.841Z,1.80
2023-01-20T08:29:04.911Z,1.93
2023-01-20T08:31:33.713Z,1.90
2023-01-20T08:34:02.245Z,1.88
2023-01-20T08:36:34.331Z,1.83
2023-01-20T08:39:08.342Z,1.56
2023-01-20T08:41:41.193Z,1.91
2023-01-20T08:44:13.049Z,2.08
2023-01-20T08:46:42.326Z,2.06
2023-01-20T08:49:13.670Z,2.10
2023-01-20T08:51:42.868Z,2.16
2023-01-20T08:54:11.357Z,2.24
2023-01-20T08:56:41.363Z,2.20
2023-01-20T08:59:12.532Z,2.19
2023-01-20T09:01:43.120Z,2.31
2023-01-20T09:04:19.878Z,2.47
2023-01-20T09:06:52.828Z,2.58
2023-01-20T09:09:24.364Z,2.60
2023-01-20T09:12:01.413Z,2.56
2023-01-20T09:14:30.265Z,2.58
2023-01-20T09:17:00.491Z,2.71
2023-01-20T09:19:30.763Z,2.69
2023-01-20T09:21:59.524Z,2.48
2023-01-20T09:24:28.304Z,2.47
2023-01-20T09:26:58.542Z,2.63
2023-01-20T09:29:27.399Z,2.81
2023-01-20T09:31:58.935Z,2.71
2023-01-20T09:34:30.044Z,2.84
2023-01-20T09:37:21.259Z,2.49
2023-01-20T09:40:08.157Z,3.08
2023-01-20T09:43:14.800Z,3.18
2023-01-20T09:45:53.331Z,2.81
2023-01-20T09:48:53.951Z,2.57
2023-01-20T09:51:53.033Z,3.14
2023-01-20T09:54:30.285Z,3.20
2023-01-20T09:57:03.015Z,3.15
2023-01-20T09:59:40.654Z,2.12
2023-01-20T10:02:19.167Z,3.15
2023-01-20T10:04:53.680Z,2.78
2023-01-20T10:07:32.777Z,2.93
2023-01-20T10:10:14.366Z,2.92
2023-01-20T10:12:50.833Z,2.69
2023-01-20T10:15:29.210Z,2.53
2023-01-20T10:18:05.353Z,2.49
2023-01-20T10:20:44.101Z,2.03
2023-01-20T10:23:21.521Z,2.42
2023-01-20T10:25:57.418Z,2.42
2023-01-20T10:28:30.340Z,2.27
2023-01-20T10:31:05.374Z,2.20
2023-01-20T10:33:39.186Z,2.29
2023-01-20T10:36:17.508Z,2.24
2023-01-20T10:38:58.068Z,2.41
2023-01-20T10:41:39.974Z,1.21
2023-01-20T10:44:14.648Z,1.95
2023-01-20T10:47:13.745Z,2.48
2023-01-20T10:50:22.279Z,2.41
2023-01-20T10:53:25.166Z,2.98
2023-01-20T10:56:07.040Z,3.14
2023-01-20T10:58:41.688Z,1.74
2023-01-20T11:01:15.155Z,3.12
2023-01-20T11:03:49.083Z,3.12
2023-01-20T11:06:25.309Z,2.72
2023-01-20T11:08:55.116Z,2.81
2023-01-20T11:11:25.995Z,2.79
2023-01-20T11:13:55.263Z,2.84
2023-01-20T11:16:28.861Z,2.78
2023-01-20T11:19:02.183Z,2.62
2023-01-20T11:21:36.901Z,2.64
2023-01-20T11:24:32.177Z,2.71
2023-01-20T11:27:06.762Z,2.89
2023-01-20T11:29:43.915Z,2.86
2023-01-20T11:32:33.351Z,2.58
2023-01-20T11:35:21.315Z,2.48
2023-01-20T11:37:50.031Z,2.01
2023-01-20T11:40:23.538Z,2.26
2023-01-20T11:42:53.869Z,2.39
2023-01-20T11:45:51.862Z,2.17
2023-01-20T11:48:21.769Z,2.57
2023-01-20T11:50:56.308Z,2.62
2023-01-20T11:53:28.383Z,2.52
2023-01-20T11:56:02.022Z,1.80
2023-01-20T11:58:49.443Z,2.16
2023-01-20T12:01:25.876Z,1.98
2023-01-20T12:04:58.639Z,2.43
2023-01-20T12:07:35.660Z,2.60
2023-01-20T12:10:16.056Z,2.56
2023-01-20T12:12:52.370Z,2.27
2023-01-20T12:15:25.175Z,2.23
2023-01-20T12:17:59.659Z,2.60
2023-01-20T12:20:45.612Z,2.52
2023-01-20T12:23:33.897Z,2.61
2023-01-20T12:26:05.695Z,2.53
2023-01-20T12:28:43.499Z,2.51
2023-01-20T12:31:14.554Z,2.34
2023-01-20T12:33:48.311Z,1.81
2023-01-20T12:36:56.831Z,2.38
2023-01-20T12:40:07.325Z,2.48
2023-01-20T12:43:08.729Z,1.96
2023-01-20T12:46:01.109Z,2.28
2023-01-20T12:48:50.166Z,2.12
2023-01-20T12:51:47.417Z,2.41
2023-01-20T12:54:52.779Z,2.21
2023-01-20T12:57:45.672Z,2.31
2023-01-20T13:00:41.717Z,1.94
2023-01-20T13:04:11.813Z,2.06
2023-01-20T13:07:23.215Z,2.23
2023-01-20T13:10:24.441Z,2.26
2023-01-20T13:13:02.979Z,2.01
2023-01-20T13:15:39.259Z,2.04
2023-01-20T13:18:28.821Z,2.22
2023-01-20T13:23:40.833Z,1.98
2023-01-20T13:26:11.022Z,1.26
2023-01-20T13:28:39.914Z,1.85
2023-01-20T13:31:44.010Z,1.51
2023-01-20T13:34:40.461Z,1.51
2023-01-20T13:37:28.227Z,1.63
2023-01-20T13:40:00.518Z,1.93
2023-01-20T13:42:50.251Z,1.68
2023-01-20T13:45:27.895Z,1.41
2023-01-20T13:48:03.635Z,1.86
2023-01-20T13:50:35.377Z,1.66
2023-01-20T13:53:25.774Z,1.50
2023-01-20T13:56:26.776Z,2.01
2023-01-20T13:58:58.425Z,2.02
2023-01-20T14:01:28.381Z,2.05
2023-01-20T14:04:05.674Z,2.10
2023-01-20T14:06:36.001Z,1.38
2023-01-20T14:09:20.041Z,1.66
2023-01-20T14:11:52.582Z,1.11
2023-01-20T14:14:25.439Z,1.21
2023-01-20T14:16:54.851Z,1.22
2023-01-20T14:19:31.036Z,1.47
2023-01-20T14:22:02.841Z,1.65
2023-01-20T14:24:34.969Z,1.75
2023-01-20T14:27:15.519Z,1.69
2023-01-20T14:29:46.552Z,1.49
2023-01-20T14:32:22.343Z,1.31
2023-01-20T14:34:53.151Z,1.09
2023-01-20T14:37:30.074Z,1.02
2023-01-20T14:40:03.226Z,0.88
2023-01-20T14:42:32.031Z,0.73
2023-01-20T14:45:02.240Z,0.82
2023-01-20T14:47:34.387Z,0.95
2023-01-20T14:50:04.395Z,1.12
2023-01-20T14:52:35.297Z,1.08
2023-01-20T14:55:04.104Z,1.04
2023-01-20T14:57:35.331Z,0.92
2023-01-20T15:00:23.281Z,1.10
2023-01-20T15:03:10.216Z,1.04
2023-01-20T15:05:53.479Z,0.89
2023-01-20T15:08:26.742Z,1.03
2023-01-20T15:11:22.536Z,0.82
2023-01-20T15:14:11.507Z,1.10
2023-01-20T15:16:50.273Z,0.89
2023-01-20T15:19:38.984Z,1.06
2023-01-20T15:22:28.364Z,0.79
2023-01-20T15:25:04.378Z,0.89
2023-01-20T15:27:35.014Z,0.89
2023-01-20T15:30:21.113Z,0.97
2023-01-20T15:32:53.035Z,0.90
2023-01-20T15:35:25.917Z,0.80
2023-01-20T15:37:55.702Z,0.89
2023-01-20T15:40:27.276Z,0.70
2023-01-20T15:42:57.796Z,0.64
2023-01-20T15:45:26.841Z,-0.22
2023-01-20T15:47:57.812Z,0.52
2023-01-20T15:50:27.196Z,0.58
2023-01-20T15:52:56.641Z,0.65
2023-01-20T15:55:26.082Z,0.72
2023-01-20T15:57:54.941Z,0.73
2023-01-20T16:00:25.262Z,0.19
2023-01-20T16:02:54.391Z,0.77
2023-01-20T16:05:25.420Z,0.86
2023-01-20T16:07:54.614Z,0.89
2023-01-20T16:10:23.380Z,0.84
2023-01-20T16:12:52.382Z,0.66
2023-01-20T16:15:21.497Z,0.78
2023-01-20T16:17:52.735Z,0.66
2023-01-20T16:20:27.079Z,0.43
2023-01-20T16:22:57.148Z,0.48
2023-01-20T16:25:26.292Z,0.13
2023-01-20T16:27:54.931Z,0.66
2023-01-20T16:30:24.703Z,0.27
2023-01-20T16:32:53.807Z,0.43
2023-01-20T16:35:25.512Z,0.48
2023-01-20T16:37:54.588Z,0.49
2023-01-20T16:40:24.791Z,0.54
2023-01-20T16:42:56.853Z,0.67
2023-01-20T16:45:31.746Z,0.68
2023-01-20T16:48:00.737Z,0.69
2023-01-20T16:50:30.812Z,0.56
2023-01-20T16:52:59.753Z,0.45
2023-01-20T16:55:28.468Z,0.46
2023-01-20T16:57:57.907Z,0.43
2023-01-20T17:00:27.238Z,0.45
2023-01-20T17:02:56.313Z,0.52
2023-01-20T17:05:26.010Z,0.58
2023-01-20T17:07:58.103Z,0.71
2023-01-20T17:10:29.524Z,0.49
2023-01-20T17:13:00.482Z,-0.12
2023-01-20T17:15:30.267Z,0.21
2023-01-20T17:18:00.608Z,0.31
2023-01-20T17:20:31.277Z,0.44
2023-01-20T17:23:01.859Z,0.49
2023-01-20T17:25:31.120Z,0.51
2023-01-20T17:28:00.213Z,0.52
2023-01-20T17:30:29.065Z,0.40
2023-01-20T17:32:58.534Z,0.43
2023-01-20T17:35:28.379Z,0.56
2023-01-20T17:38:00.669Z,0.32
2023-01-20T17:40:29.475Z,0.54
2023-01-20T17:42:58.892Z,0.46
2023-01-20T17:45:29.587Z,0.44
2023-01-20T17:47:58.153Z,-1.41
2023-01-20T17:50:28.825Z,0.29
2023-01-20T17:52:58.039Z,0.03
2023-01-20T17:55:29.884Z,-0.32
2023-01-20T17:57:59.364Z,-0.01
2023-01-20T18:00:28.287Z,0.09
2023-01-20T18:02:58.363Z,0.16
2023-01-20T18:05:28.872Z,0.18
2023-01-20T18:07:57.814Z,0.25
2023-01-20T18:10:28.477Z,0.09
2023-01-20T18:12:57.879Z,-0.70
2023-01-20T18:15:26.746Z,-0.33
2023-01-20T18:17:56.191Z,0.00
2023-01-20T18:20:25.047Z,0.06
2023-01-20T18:22:54.641Z,0.14
2023-01-20T18:25:23.396Z,0.26
2023-01-20T18:27:53.968Z,0.17
2023-01-20T18:30:22.791Z,0.28
2023-01-20T18:32:52.302Z,0.29
2023-01-20T18:35:21.735Z,0.14
2023-01-20T18:37:51.100Z,-0.05
2023-01-20T18:40:20.397Z,-0.19
2023-01-20T18:42:49.391Z,-0.14
2023-01-20T18:45:20.130Z,-0.09
2023-01-20T18:47:50.173Z,-0.22
2023-01-20T18:50:20.058Z,0.06
2023-01-20T18:52:49.120Z,0.06
2023-01-20T18:55:18.335Z,-0.01
2023-01-20T18:57:47.762Z,-0.11
2023-01-20T19:00:20.856Z,-0.17
2023-01-20T19:02:52.858Z,-1.24
2023-01-20T19:05:22.007Z,-0.27
2023-01-20T19:07:51.372Z,-0.30
2023-01-20T19:10:21.706Z,-0.37
2023-01-20T19:12:53.448Z,-1.07
2023-01-20T19:15:24.200Z,-0.38
2023-01-20T19:17:53.267Z,-0.39
2023-01-20T19:20:22.486Z,-0.41
2023-01-20T19:22:51.673Z,-0.46
2023-01-20T19:25:20.414Z,-0.49
2023-01-20T19:27:49.192Z,-0.51
2023-01-20T19:30:18.786Z,-0.48
2023-01-20T19:32:49.014Z,-0.40
2023-01-20T19:35:17.780Z,-0.18
2023-01-20T19:37:46.509Z,-0.13
2023-01-20T19:40:16.513Z,-0.14
2023-01-20T19:42:48.309Z,-0.15
2023-01-20T19:45:17.408Z,-0.08
2023-01-20T19:47:46.145Z,-0.09
2023-01-20T19:50:17.032Z,-0.06
2023-01-20T19:52:45.904Z,-0.03
2023-01-20T19:55:14.709Z,-0.06
2023-01-20T19:57:43.455Z,-0.02
2023-01-20T20:00:14.804Z,-0.22
2023-01-20T20:02:45.735Z,0.05
2023-01-20T20:05:16.834Z,0.00
2023-01-20T20:07:45.670Z,0.06
2023-01-20T20:10:14.816Z,-0.01
2023-01-20T20:12:43.701Z,-0.01
2023-01-20T20:15:12.964Z,-0.01
2023-01-20T20:17:41.461Z,-0.13
2023-01-20T20:20:11.916Z,0.05
2023-01-20T20:22:42.173Z,-0.01
2023-01-20T20:25:11.579Z,0.00
2023-01-20T20:27:40.327Z,-0.08
2023-01-20T20:30:10.625Z,0.01
2023-01-20T20:32:39.480Z,0.09
2023-01-20T20:35:08.630Z,-0.05
2023-01-20T20:37:37.489Z,-0.48
2023-01-20T20:40:10.695Z,-0.42
2023-01-20T20:42:39.431Z,-0.43
2023-01-20T20:45:09.749Z,-0.46
2023-01-20T20:47:38.562Z,-0.42
2023-01-20T20:50:08.733Z,-1.12
2023-01-20T20:52:37.438Z,-0.57
2023-01-20T20:55:10.784Z,-0.49
2023-01-20T20:57:40.833Z,-0.52
2023-01-20T21:00:11.420Z,-0.65
2023-01-20T21:02:43.118Z,-0.20
2023-01-20T21:05:11.953Z,-0.35
2023-01-20T21:07:40.688Z,-0.27
2023-01-20T21:10:14.257Z,-0.20
2023-01-20T21:12:43.297Z,-0.27
2023-01-20T21:15:12.578Z,-0.22
2023-01-20T21:17:41.452Z,-0.21
2023-01-20T21:20:11.562Z,-0.19
2023-01-20T21:22:40.419Z,-0.23
2023-01-20T21:25:11.614Z,-0.23
2023-01-20T21:27:40.536Z,-0.28
2023-01-20T21:30:11.535Z,-0.19
2023-01-20T21:32:40.931Z,-0.18
2023-01-20T21:35:10.820Z,-0.21
2023-01-20T21:37:39.609Z,-0.17
2023-01-20T21:40:09.518Z,-0.39
2023-01-20T21:42:39.337Z,-0.14
2023-01-20T21:45:08.955Z,-0.28
2023-01-20T21:47:37.661Z,-0.17
2023-01-20T21:50:24.968Z,-0.56
2023-01-20T21:52:53.879Z,-0.14
2023-01-20T21:55:24.218Z,-0.12
2023-01-20T21:57:54.177Z,-0.01
2023-01-20T22:00:23.450Z,-0.35
2023-01-20T22:02:52.185Z,-0.51
2023-01-20T22:05:21.010Z,-0.63
2023-01-20T22:07:49.762Z,-0.65
2023-01-20T22:10:18.889Z,-0.66
2023-01-20T22:12:47.649Z,-0.65
2023-01-20T22:15:17.845Z,-0.59
2023-01-20T22:17:47.523Z,-0.62
2023-01-20T22:20:16.681Z,-0.51
2023-01-20T22:22:45.607Z,-0.38
2023-01-20T22:25:14.441Z,-0.30
2023-01-20T22:27:43.396Z,-0.31
2023-01-20T22:30:13.506Z,-0.20
2023-01-20T22:32:51.272Z,-0.34
2023-01-20T22:35:20.046Z,-0.53
2023-01-20T22:37:48.788Z,-0.28
2023-01-20T22:40:20.661Z,-0.39
2023-01-20T22:42:49.775Z,-0.49
2023-01-20T22:45:18.669Z,-0.47
2023-01-20T22:47:47.471Z,-0.31
2023-01-20T22:50:18.172Z,-0.39
2023-01-20T22:52:47.647Z,-0.21
2023-01-20T22:55:16.421Z,-0.15
2023-01-20T22:57:45.165Z,-0.19
2023-01-20T23:00:14.540Z,-0.26
2023-01-20T23:02:43.539Z,-0.24
2023-01-20T23:05:12.047Z,-0.24
2023-01-20T23:07:42.217Z,-0.27
2023-01-20T23:10:33.405Z,-0.14
2023-01-20T23:13:02.237Z,-0.20
2023-01-20T23:15:30.971Z,-0.38
2023-01-20T23:17:59.770Z,-0.30
2023-01-20T23:20:29.093Z,-0.34
2023-01-20T23:22:59.048Z,-0.36
2023-01-20T23:25:27.792Z,-0.26
2023-01-20T23:27:56.501Z,-0.35
2023-01-20T23:30:25.220Z,-0.56
2023-01-20T23:32:53.911Z,-0.62
2023-01-20T23:35:22.710Z,-0.69
2023-01-20T23:37:51.974Z,-0.62
2023-01-20T23:40:22.106Z,-0.67
2023-01-20T23:42:51.404Z,-0.63
2023-01-20T23:45:19.773Z,-0.43
2023-01-20T23:47:48.519Z,-0.33
2023-01-20T23:50:17.726Z,-0.34
2023-01-20T23:52:46.625Z,-0.39
2023-01-20T23:55:15.166Z,-0.31
2023-01-20T23:57:44.922Z,-0.45
